createdAt,value
2023-04-25T00:00:09.738Z,978
2023-04-25T00:04:12.669Z,978
2023-04-25T00:06:14.297Z,978.1
2023-04-25T00:10:16.785Z,977.9
2023-04-25T00:12:17.836Z,978
2023-04-25T00:14:19.618Z,977.9
2023-04-25T00:16:21.078Z,977.9
2023-04-25T00:20:24.139Z,977.9
2023-04-25T00:22:25.260Z,977.8
2023-04-25T00:24:27.172Z,977.8
2023-04-25T00:26:28.930Z,977.7
2023-04-25T00:28:30.195Z,977.8
2023-04-25T00:32:32.242Z,977.7
2023-04-25T00:34:33.772Z,977.8
2023-04-25T00:36:35.345Z,977.7
2023-04-25T00:38:37.250Z,977.7
2023-04-25T00:42:48.841Z,977.8
2023-04-25T00:44:41.337Z,977.7
2023-04-25T00:48:44.451Z,977.8
2023-04-25T00:52:47.772Z,977.5
2023-04-25T00:54:49.169Z,977.6
2023-04-25T00:58:51.835Z,977.6
2023-04-25T01:02:54.357Z,977.5
2023-04-25T01:04:55.962Z,977.5
2023-04-25T01:08:58.870Z,977.5
2023-04-25T01:11:00.776Z,977.6
2023-04-25T01:15:03.091Z,977.5
2023-04-25T01:19:05.576Z,977.5
2023-04-25T01:21:06.891Z,977.6
2023-04-25T01:25:09.960Z,977.5
2023-04-25T01:27:11.282Z,977.6
2023-04-25T01:31:14.576Z,977.4
2023-04-25T01:35:17.674Z,977.5
2023-04-25T01:37:18.770Z,977.5
2023-04-25T01:41:22.218Z,977.4
2023-04-25T01:45:24.167Z,977.4
2023-04-25T01:47:25.871Z,977.4
2023-04-25T01:51:28.731Z,977.5
2023-04-25T01:53:29.826Z,977.4
2023-04-25T01:57:32.827Z,977.4
2023-04-25T02:01:35.318Z,977.5
2023-04-25T02:03:37.292Z,977.4
2023-04-25T02:07:40.120Z,977.3
2023-04-25T02:09:41.878Z,977.4
2023-04-25T02:13:44.721Z,977.5
2023-04-25T02:17:47.732Z,977.4
2023-04-25T02:19:49.413Z,977.5
2023-04-25T02:23:52.393Z,977.4
2023-04-25T02:27:55.023Z,977.4
2023-04-25T02:29:56.344Z,977.5
2023-04-25T02:33:58.717Z,977.4
2023-04-25T02:36:00.452Z,977.4
2023-04-25T02:38:02.089Z,977.5
2023-04-25T02:40:03.943Z,977.4
2023-04-25T02:44:06.216Z,977.4
2023-04-25T02:46:07.325Z,977.5
2023-04-25T02:48:08.801Z,977.5
2023-04-25T02:50:09.823Z,977.6
2023-04-25T02:52:11.559Z,977.4
2023-04-25T02:56:14.250Z,977.4
2023-04-25T02:58:15.484Z,977.4
2023-04-25T03:00:16.766Z,977.3
2023-04-25T03:02:18.550Z,977.4
2023-04-25T03:06:21.094Z,977.4
2023-04-25T03:08:22.993Z,977.4
2023-04-25T03:12:25.931Z,977.4
2023-04-25T03:16:29.469Z,977.5
2023-04-25T03:18:30.948Z,977.4
2023-04-25T03:22:33.899Z,977.4
2023-04-25T03:26:36.014Z,977.5
2023-04-25T03:28:37.905Z,977.4
2023-04-25T03:32:41.234Z,977.4
2023-04-25T03:34:42.531Z,977.4
2023-04-25T03:38:45.692Z,977.4
2023-04-25T03:42:49.102Z,977.4
2023-04-25T03:44:50.930Z,977.4
2023-04-25T03:48:53.684Z,977.5
2023-04-25T03:50:55.492Z,977.4
2023-04-25T03:54:58.181Z,977.4
2023-04-25T03:59:00.921Z,977.5
2023-04-25T04:01:01.994Z,977.5
2023-04-25T04:05:04.772Z,977.5
2023-04-25T04:09:07.486Z,977.4
2023-04-25T04:11:08.597Z,977.5
2023-04-25T04:15:11.600Z,977.5
2023-04-25T04:17:13.069Z,977.5
2023-04-25T04:21:15.790Z,977.5
2023-04-25T04:25:17.956Z,977.5
2023-04-25T04:27:19.022Z,977.5
2023-04-25T04:31:21.288Z,977.5
2023-04-25T04:33:22.609Z,977.5
2023-04-25T04:37:26.358Z,977.7
2023-04-25T04:41:28.912Z,977.6
2023-04-25T04:43:29.878Z,977.5
2023-04-25T04:47:33.598Z,977.7
2023-04-25T04:51:36.636Z,977.6
2023-04-25T04:53:38.440Z,977.6
2023-04-25T04:57:41.754Z,977.7
2023-04-25T04:59:43.297Z,977.8
2023-04-25T05:02:28.686Z,977.8
2023-04-25T05:04:30.417Z,977.8
2023-04-25T05:08:33.534Z,977.9
2023-04-25T05:10:35.240Z,977.8
2023-04-25T05:14:38.123Z,977.9
2023-04-25T05:18:40.788Z,977.9
2023-04-25T05:20:41.946Z,977.9
2023-04-25T05:24:45.166Z,977.9
2023-04-25T05:28:48.600Z,978
2023-04-25T05:30:49.936Z,977.9
2023-04-25T05:34:52.831Z,978
2023-04-25T05:36:54.145Z,978.1
2023-04-25T05:38:55.487Z,978
2023-04-25T05:40:56.949Z,978.1
2023-04-25T05:44:59.841Z,978
2023-04-25T05:47:01.026Z,978.1
2023-04-25T05:49:02.846Z,978.1
2023-04-25T05:51:04.385Z,978.1
2023-04-25T05:53:06.127Z,978.1
2023-04-25T05:57:08.395Z,978.1
2023-04-25T06:01:11.080Z,978.1
2023-04-25T06:03:12.784Z,978.1
2023-04-25T06:07:16.022Z,978.1
2023-04-25T06:09:17.439Z,978.2
2023-04-25T06:13:20.464Z,978.2
2023-04-25T06:17:23.564Z,978.2
2023-04-25T06:19:25.278Z,978.2
2023-04-25T06:23:28.379Z,978.1
2023-04-25T06:27:30.936Z,978.2
2023-04-25T06:29:32.670Z,978.2
2023-04-25T06:33:35.176Z,978.2
2023-04-25T06:35:36.472Z,978.2
2023-04-25T06:39:41.234Z,978.3
2023-04-25T06:43:43.180Z,978.3
2023-04-25T06:45:45.744Z,978.3
2023-04-25T06:49:47.975Z,978.2
2023-04-25T06:51:48.973Z,978.2
2023-04-25T06:55:51.670Z,978.3
2023-04-25T06:59:54.532Z,978.2
2023-04-25T07:01:55.973Z,978.2
2023-04-25T07:05:58.810Z,978.3
2023-04-25T07:10:00.952Z,978.3
2023-04-25T07:12:02.683Z,978.4
2023-04-25T07:16:05.600Z,978.3
2023-04-25T07:18:06.656Z,978.4
2023-04-25T07:22:08.622Z,978.4
2023-04-25T07:26:10.753Z,978.3
2023-04-25T07:28:12.452Z,978.4
2023-04-25T07:32:15.139Z,978.4
2023-04-25T07:34:15.996Z,978.5
2023-04-25T07:38:18.840Z,978.4
2023-04-25T07:42:21.969Z,978.3
2023-04-25T07:44:23.137Z,978.5
2023-04-25T07:48:25.683Z,978.5
2023-04-25T07:52:28.624Z,978.5
2023-04-25T07:54:30.249Z,978.6
2023-04-25T07:58:32.906Z,978.6
2023-04-25T08:00:34.105Z,978.6
2023-04-25T08:02:35.682Z,978.5
2023-04-25T08:04:36.882Z,978.6
2023-04-25T08:08:39.462Z,978.7
2023-04-25T08:10:40.820Z,978.7
2023-04-25T08:12:42.504Z,978.7
2023-04-25T08:14:44.043Z,978.8
2023-04-25T08:16:44.994Z,978.7
2023-04-25T08:20:48.198Z,978.7
2023-04-25T08:24:50.635Z,978.8
2023-04-25T08:26:52.400Z,978.7
2023-04-25T08:30:55.236Z,978.8
2023-04-25T08:32:56.998Z,978.8
2023-04-25T08:37:00.033Z,978.7
2023-04-25T08:41:02.529Z,978.8
2023-04-25T08:43:03.966Z,978.8
2023-04-25T08:47:06.614Z,978.8
2023-04-25T08:49:07.510Z,978.7
2023-04-25T08:53:09.837Z,978.8
2023-04-25T08:57:13.029Z,978.9
2023-04-25T08:59:14.342Z,978.9
2023-04-25T09:03:18.629Z,979.1
2023-04-25T09:09:22.049Z,979
2023-04-25T09:13:25.240Z,979.1
2023-04-25T09:15:27.516Z,979.1
2023-04-25T09:17:28.527Z,979.1
2023-04-25T09:19:39.390Z,979.1
2023-04-25T09:23:33.010Z,979.2
2023-04-25T09:25:34.717Z,979.1
2023-04-25T09:27:36.934Z,979.1
2023-04-25T09:29:38.758Z,979.3
2023-04-25T09:31:39.869Z,979.2
2023-04-25T09:35:41.995Z,979.3
2023-04-25T09:37:43.269Z,979.3
2023-04-25T09:39:44.861Z,979.4
2023-04-25T09:41:46.589Z,979.4
2023-04-25T09:45:49.681Z,979.5
2023-04-25T09:51:53.243Z,979.5
2023-04-25T09:55:55.896Z,979.5
2023-04-25T09:57:57.492Z,979.5
2023-04-25T10:02:00.008Z,979.5
2023-04-25T10:06:01.998Z,979.6
2023-04-25T10:08:03.100Z,979.5
2023-04-25T10:12:05.500Z,979.5
2023-04-25T10:14:06.881Z,979.6
2023-04-25T10:18:10.272Z,979.7
2023-04-25T10:22:12.567Z,979.6
2023-04-25T10:24:13.934Z,979.6
2023-04-25T10:28:16.481Z,979.7
2023-04-25T10:30:17.905Z,979.7
2023-04-25T10:34:19.871Z,979.7
2023-04-25T10:38:22.689Z,979.8
2023-04-25T10:40:23.761Z,979.7
2023-04-25T10:44:26.737Z,979.7
2023-04-25T10:48:29.426Z,979.7
2023-04-25T10:50:30.441Z,979.8
2023-04-25T10:54:32.721Z,979.7
2023-04-25T10:56:33.740Z,979.7
2023-04-25T11:00:48.158Z,979.8
2023-04-25T11:04:40.586Z,979.7
2023-04-25T11:06:41.908Z,979.9
2023-04-25T11:10:44.911Z,979.9
2023-04-25T11:12:46.314Z,979.9
2023-04-25T11:16:49.620Z,979.9
2023-04-25T11:20:52.342Z,979.9
2023-04-25T11:22:53.251Z,979.9
2023-04-25T11:26:55.825Z,980
2023-04-25T11:33:00.275Z,980
2023-04-25T11:37:03.618Z,980
2023-04-25T11:39:05.366Z,980
2023-04-25T11:41:06.350Z,980
2023-04-25T11:43:08.173Z,980
2023-04-25T11:47:54.617Z,980
2023-04-25T11:49:56.109Z,980.1
2023-04-25T11:53:59.223Z,980.1
2023-04-25T11:56:00.669Z,980.1
2023-04-25T11:58:01.841Z,980.3
2023-04-25T12:00:03.651Z,980.1
2023-04-25T12:04:07.091Z,980.2
2023-04-25T12:06:09.537Z,980.2
2023-04-25T12:10:11.826Z,980.2
2023-04-25T12:14:14.010Z,980.2
2023-04-25T12:16:15.230Z,980.2
2023-04-25T12:20:17.756Z,980.3
2023-04-25T12:24:21.336Z,980.2
2023-04-25T12:26:22.270Z,980.4
2023-04-25T12:30:24.832Z,980.5
2023-04-25T12:32:26.735Z,980.5
2023-04-25T12:36:29.223Z,980.4
2023-04-25T12:40:32.826Z,980.4
2023-04-25T12:42:34.649Z,980.5
2023-04-25T12:46:37.331Z,980.5
2023-04-25T12:48:38.288Z,980.6
2023-04-25T12:52:40.855Z,980.3
2023-04-25T12:56:43.537Z,980.5
2023-04-25T12:58:45.073Z,980.5
2023-04-25T13:02:47.663Z,980.5
2023-04-25T13:06:49.366Z,980.4
2023-04-25T13:08:50.598Z,980.6
2023-04-25T13:12:52.353Z,980.4
2023-04-25T13:14:53.775Z,980.5
2023-04-25T13:18:56.952Z,980.6
2023-04-25T13:25:01.617Z,980.6
2023-04-25T13:29:04.562Z,980.6
2023-04-25T13:31:05.934Z,980.6
2023-04-25T13:35:10.587Z,980.7
2023-04-25T13:39:11.464Z,980.8
2023-04-25T13:41:13.010Z,980.7
2023-04-25T13:45:15.576Z,980.7
2023-04-25T13:49:18.538Z,980.8
2023-04-25T13:51:19.356Z,980.7
2023-04-25T13:55:23.464Z,980.7
2023-04-25T13:57:24.535Z,980.7
2023-04-25T14:01:27.662Z,980.8
2023-04-25T14:05:30.007Z,980.9
2023-04-25T14:07:31.378Z,980.8
2023-04-25T14:11:34.015Z,980.7
2023-04-25T14:13:34.854Z,980.8
2023-04-25T14:17:37.010Z,980.9
2023-04-25T14:19:37.919Z,980.9
2023-04-25T14:21:38.847Z,981
2023-04-25T14:23:40.202Z,981.1
2023-04-25T14:27:43.665Z,981.1
2023-04-25T14:29:44.493Z,981.1
2023-04-25T14:33:47.374Z,981.1
2023-04-25T14:37:49.543Z,981.2
2023-04-25T14:39:50.893Z,981.2
2023-04-25T14:43:53.275Z,981.2
2023-04-25T14:47:56.143Z,981.2
2023-04-25T14:49:57.270Z,981.2
2023-04-25T14:54:00.165Z,981.1
2023-04-25T14:56:01.948Z,981.2
2023-04-25T15:00:04.243Z,981.2
2023-04-25T15:04:07.047Z,981.3
2023-04-25T15:06:08.489Z,981.2
2023-04-25T15:10:11.132Z,981.3
2023-04-25T15:12:12.717Z,981.3
2023-04-25T15:16:16.446Z,981.3
2023-04-25T15:20:19.109Z,981.4
2023-04-25T15:22:19.951Z,981.4
2023-04-25T15:26:22.691Z,981.5
2023-04-25T15:30:25.332Z,981.5
2023-04-25T15:32:26.821Z,981.4
2023-04-25T15:36:29.830Z,981.5
2023-04-25T15:38:30.801Z,981.6
2023-04-25T15:42:33.723Z,981.7
2023-04-25T15:46:35.814Z,981.6
2023-04-25T15:48:37.523Z,981.6
2023-04-25T15:52:40.667Z,981.7
2023-04-25T15:54:41.836Z,981.7
2023-04-25T15:58:44.635Z,981.8
2023-04-25T16:02:46.691Z,981.7
2023-04-25T16:04:48.276Z,981.8
2023-04-25T16:08:51.777Z,981.8
2023-04-25T16:12:53.928Z,981.7
2023-04-25T16:14:55.063Z,981.7
2023-04-25T16:18:57.128Z,981.8
2023-04-25T16:20:58.193Z,981.9
2023-04-25T16:25:00.901Z,981.9
2023-04-25T16:29:04.069Z,981.9
2023-04-25T16:31:05.314Z,981.9
2023-04-25T16:33:06.901Z,981.9
2023-04-25T16:35:08.391Z,982
2023-04-25T16:37:09.627Z,982
2023-04-25T16:41:12.699Z,982
2023-04-25T16:43:14.015Z,982.1
2023-04-25T16:45:15.757Z,982.1
2023-04-25T16:47:18.792Z,982.1
2023-04-25T16:51:19.970Z,982.1
2023-04-25T16:53:21.661Z,982
2023-04-25T16:57:24.375Z,982.1
2023-04-25T17:01:26.641Z,982
2023-04-25T17:03:27.917Z,982
2023-04-25T17:07:30.650Z,982
2023-04-25T17:11:33.807Z,982
2023-04-25T17:13:35.417Z,982.1
2023-04-25T17:17:38.178Z,982
2023-04-25T17:19:39.451Z,982.1
2023-04-25T17:23:41.906Z,982.1
2023-04-25T17:27:44.317Z,982.3
2023-04-25T17:29:45.978Z,982.2
2023-04-25T17:33:48.864Z,982.3
2023-04-25T17:35:49.859Z,982.4
2023-04-25T17:39:52.527Z,982.4
2023-04-25T17:43:56.304Z,982.4
2023-04-25T17:45:57.455Z,982.4
2023-04-25T17:49:59.812Z,982.5
2023-04-25T17:54:03.474Z,982.5
2023-04-25T17:56:06.873Z,982.6
2023-04-25T18:00:08.496Z,982.6
2023-04-25T18:02:10.097Z,982.7
2023-04-25T18:06:12.385Z,982.8
2023-04-25T18:10:14.749Z,982.6
2023-04-25T18:12:16.565Z,982.6
2023-04-25T18:16:20.198Z,982.7
2023-04-25T18:18:21.960Z,982.6
2023-04-25T18:22:25.075Z,982.8
2023-04-25T18:26:28.161Z,982.9
2023-04-25T18:28:29.252Z,982.8
2023-04-25T18:31:15.020Z,982.8
2023-04-25T18:33:16.600Z,982.9
2023-04-25T18:37:19.510Z,983
2023-04-25T18:39:23.106Z,983
2023-04-25T18:43:23.790Z,983
2023-04-25T18:47:26.868Z,983.1
2023-04-25T18:49:28.197Z,983.1
2023-04-25T18:53:30.596Z,983.2
2023-04-25T18:55:32.288Z,983.3
2023-04-25T18:59:35.136Z,983.3
2023-04-25T19:03:37.900Z,983.3
2023-04-25T19:05:39.123Z,983.3
2023-04-25T19:09:42.014Z,983.5
2023-04-25T19:15:45.853Z,983.5
2023-04-25T19:19:48.070Z,983.6
2023-04-25T19:21:49.957Z,983.6
2023-04-25T19:25:52.528Z,983.7
2023-04-25T19:29:55.920Z,983.8
2023-04-25T19:31:56.549Z,983.8
2023-04-25T19:35:59.949Z,983.7
2023-04-25T19:38:01.243Z,983.9
2023-04-25T19:42:04.681Z,983.9
2023-04-25T19:46:07.599Z,983.8
2023-04-25T19:48:09.390Z,983.8
2023-04-25T19:52:12.500Z,983.8
2023-04-25T19:54:13.480Z,983.9
2023-04-25T19:58:17.010Z,983.9
2023-04-25T20:02:19.385Z,983.8
2023-04-25T20:04:21.352Z,983.9
2023-04-25T20:08:25.966Z,983.8
2023-04-25T20:12:28.204Z,983.9
2023-04-25T20:14:30.906Z,984
2023-04-25T20:18:33.222Z,984
2023-04-25T20:20:34.378Z,984
2023-04-25T20:24:37.161Z,984.1
2023-04-25T20:28:40.214Z,984
2023-04-25T20:30:41.417Z,984
2023-04-25T20:34:44.421Z,984.2
2023-04-25T20:36:46.303Z,984.2
2023-04-25T20:40:49.934Z,984.2
2023-04-25T20:44:53.433Z,984.1
2023-04-25T20:46:55.272Z,984.2
2023-04-25T20:50:58.458Z,984.1
2023-04-25T20:55:01.421Z,984.1
2023-04-25T20:57:02.502Z,984.1
2023-04-25T21:01:05.680Z,984.2
2023-04-25T21:03:07.002Z,984.2
2023-04-25T21:07:09.805Z,984.2
2023-04-25T21:11:12.725Z,984.4
2023-04-25T21:13:14.092Z,984.3
2023-04-25T21:17:17.222Z,984.2
2023-04-25T21:19:19.104Z,984.3
2023-04-25T21:23:21.690Z,984.3
2023-04-25T21:27:24.743Z,984.4
2023-04-25T21:29:25.881Z,984.4
2023-04-25T21:33:28.818Z,984.5
2023-04-25T21:37:32.135Z,984.4
2023-04-25T21:39:33.196Z,984.3
2023-04-25T21:43:36.475Z,984.4
2023-04-25T21:45:41.281Z,984.4
2023-04-25T21:49:40.957Z,984.5
2023-04-25T21:53:43.849Z,984.4
2023-04-25T21:55:45.034Z,984.5
2023-04-25T21:59:48.297Z,984.5
2023-04-25T22:01:49.463Z,984.5
2023-04-25T22:05:52.873Z,984.5
2023-04-25T22:09:56.320Z,984.6
2023-04-25T22:11:57.655Z,984.5
2023-04-25T22:16:00.483Z,984.7
2023-04-25T22:20:04.076Z,984.7
2023-04-25T22:22:05.726Z,984.8
2023-04-25T22:26:08.925Z,984.7
2023-04-25T22:28:10.476Z,984.8
2023-04-25T22:32:13.365Z,984.7
2023-04-25T22:36:16.629Z,984.6
2023-04-25T22:38:18.254Z,984.8
2023-04-25T22:42:21.684Z,984.8
2023-04-25T22:44:23.584Z,984.8
2023-04-25T22:48:26.951Z,984.9
2023-04-25T22:52:29.530Z,984.9
2023-04-25T22:54:31.535Z,984.9
2023-04-25T22:58:34.884Z,984.9
2023-04-25T23:02:37.364Z,985
2023-04-25T23:04:38.477Z,985
2023-04-25T23:08:41.944Z,985
2023-04-25T23:10:43.562Z,984.9
2023-04-25T23:14:46.442Z,985
2023-04-25T23:18:49.851Z,985.1
2023-04-25T23:20:51.249Z,985.1
2023-04-25T23:24:53.980Z,985.3
2023-04-25T23:26:55.572Z,985.3
2023-04-25T23:30:58.096Z,985.2
2023-04-25T23:35:01.102Z,985.2
2023-04-25T23:37:02.347Z,985.2
2023-04-25T23:41:04.977Z,985.1
2023-04-25T23:45:08.376Z,985.2
2023-04-25T23:47:10.204Z,985.2
2023-04-25T23:51:13.299Z,985.2
2023-04-25T23:53:14.628Z,985.3
2023-04-25T23:55:15.912Z,985.2
2023-04-25T23:57:17.503Z,985.3
